Edgewater, New Jersey
Current Conditions -  °F | °C
As of 8:15 AM on Thursday 23 Oct 2014 (Local Time) from KNYC Reporting Station
Moderate Rain Moderate Rain  
Wind Chill: 50°   Ceiling: 1500
Heat Index: 50°   Visibility: 2.5mi
Dew Point: 47°   Wind: 5mph
Humidity: 89%   Direction: NA
Pressure: 29.73"   Gusts: 17mph
Location:  40.83°N, 73.97°W
Report Text: KNYC 231215Z AUTO VRB04G15KT 2 1/2SM RA BR OVC015 10/08 A2973 RMK AO2 P0005 T01000083 $
Loading
Personal Weather Stations






























Interactive Weather Map New forecast layout! Learn more

10-Day Weather Forecast

Advertisements
Track Severe Weather on mobile